Time;durP1;ratioP1;P1;durP2;ratioP2;P2;SDS_P1;SDS_P2;PMS_P1;PMS_P2;Temp;Humidity;BMP_temperature;BMP_pressure;BME280_temperature;BME280_humidity;BME280_pressure;Samples;Min_cycle;Max_cycle;Signal;HPM_P1;HPM_P2
2020/04/25 00:00:05;;;;;;;6.35;4.3;;;;;;;12.04;50.06543;94516.63;;;;
2020/04/25 00:01:23;;;;;;;6.1;4.149999;;;;;;;12.04;50.28027;94517.16;;;;
2020/04/25 00:03:33;;;;;;;6.1;4.149999;;;;;;;12.04;50.28027;94517.16;;;;
2020/04/25 00:04:34;;;;;;;6.1;4.149999;;;;;;;12.04;50.28027;94517.16;;;;
2020/04/25 00:05:34;;;;;;;6.1;4.149999;;;;;;;12.04;50.28027;94517.16;;;;
2020/04/25 00:06:35;;;;;;;6.1;4.149999;;;;;;;12.04;50.28027;94517.16;;;;
2020/04/25 00:07:35;;;;;;;6.1;4.149999;;;;;;;12.04;50.28027;94517.16;;;;
2020/04/25 00:08:36;;;;;;;6.1;4.149999;;;;;;;12.04;50.28027;94517.16;;;;
2020/04/25 00:09:36;;;;;;;6.1;4.149999;;;;;;;12.04;50.28027;94517.16;;;;
2020/04/25 00:10:37;;;;;;;6.1;4.149999;;;;;;;12.04;50.28027;94517.16;;;;
2020/04/25 00:11:37;;;;;;;4.55;4.15;;;;;;;11.67;49.65527;94512.77;;;;
2020/04/25 00:12:38;;;;;;;4.55;4.15;;;;;;;11.67;49.65527;94512.77;;;;
2020/04/25 00:13:38;;;;;;;5.85;4.299999;;;;;;;11.66;50.53027;94507.48;;;;
2020/04/25 00:14:38;;;;;;;5.85;4.299999;;;;;;;11.66;50.53027;94507.48;;;;
2020/04/25 00:15:39;;;;;;;5.85;4.299999;;;;;;;11.66;50.53027;94507.48;;;;
2020/04/25 00:16:39;;;;;;;5.85;4.299999;;;;;;;11.66;50.53027;94507.48;;;;
2020/04/25 00:17:40;;;;;;;5.85;4.299999;;;;;;;11.66;50.53027;94507.48;;;;
2020/04/25 00:18:40;;;;;;;5.85;4.299999;;;;;;;11.66;50.53027;94507.48;;;;
2020/04/25 00:19:41;;;;;;;5.85;4.299999;;;;;;;11.66;50.53027;94507.48;;;;
2020/04/25 00:20:41;;;;;;;5.85;4.299999;;;;;;;11.66;50.53027;94507.48;;;;
2020/04/25 00:21:41;;;;;;;5.85;4.299999;;;;;;;11.66;50.53027;94507.48;;;;
2020/04/25 00:22:42;;;;;;;5.85;4.299999;;;;;;;11.66;50.53027;94507.48;;;;
2020/04/25 00:23:42;;;;;;;5.85;4.299999;;;;;;;11.66;50.53027;94507.48;;;;
2020/04/25 00:24:43;;;;;;;5.949999;4.25;;;;;;;11.57;49.84961;94502.25;;;;
2020/04/25 00:25:43;;;;;;;5.949999;4.25;;;;;;;11.57;49.84961;94502.25;;;;
2020/04/25 00:26:44;;;;;;;6.399999;4.3;;;;;;;11.64;50.61426;94504.19;;;;
2020/04/25 00:27:44;;;;;;;6.399999;4.3;;;;;;;11.64;50.61426;94504.19;;;;
2020/04/25 00:28:44;;;;;;;6.399999;4.3;;;;;;;11.64;50.61426;94504.19;;;;
2020/04/25 00:29:45;;;;;;;5.4;4.299999;;;;;;;11.78;50.98633;94506.87;;;;
2020/04/25 00:30:45;;;;;;;5.4;4.299999;;;;;;;11.78;50.98633;94506.87;;;;
2020/04/25 00:31:46;;;;;;;5.4;4.299999;;;;;;;11.78;50.98633;94506.87;;;;
2020/04/25 00:32:46;;;;;;;5.05;4.45;;;;;;;11.91;51.32617;94498.69;;;;
2020/04/25 00:33:47;;;;;;;5.05;4.45;;;;;;;11.91;51.32617;94498.69;;;;
2020/04/25 00:34:47;;;;;;;5.05;4.45;;;;;;;11.91;51.32617;94498.69;;;;
2020/04/25 00:35:48;;;;;;;5.05;4.45;;;;;;;11.91;51.32617;94498.69;;;;
2020/04/25 00:36:48;;;;;;;5.05;4.45;;;;;;;11.91;51.32617;94498.69;;;;
2020/04/25 00:37:48;;;;;;;5.05;4.45;;;;;;;11.91;51.32617;94498.69;;;;
2020/04/25 00:38:49;;;;;;;5.05;4.45;;;;;;;11.91;51.32617;94498.69;;;;
2020/04/25 00:39:49;;;;;;;5.05;4.45;;;;;;;11.91;51.32617;94498.69;;;;
2020/04/25 00:40:50;;;;;;;5.05;4.45;;;;;;;11.91;51.32617;94498.69;;;;
2020/04/25 00:41:50;;;;;;;5.05;4.45;;;;;;;11.91;51.32617;94498.69;;;;
2020/04/25 00:42:51;;;;;;;7.2;4.7;;;;;;;11.9;50.33008;94496.12;;;;
2020/04/25 00:43:51;;;;;;;7.2;4.7;;;;;;;11.9;50.33008;94496.12;;;;
2020/04/25 00:44:52;;;;;;;7.2;4.7;;;;;;;11.9;50.33008;94496.12;;;;
2020/04/25 00:45:52;;;;;;;6.1;4.400001;;;;;;;11.96;50.87793;94499.52;;;;
2020/04/25 00:46:52;;;;;;;6.1;4.400001;;;;;;;11.96;50.87793;94499.52;;;;
2020/04/25 00:47:53;;;;;;;6.400001;4.8;;;;;;;12.08;51.22656;94487.55;;;;
2020/04/25 00:48:53;;;;;;;6.400001;4.8;;;;;;;12.08;51.22656;94487.55;;;;
2020/04/25 00:49:54;;;;;;;6.400001;4.8;;;;;;;12.08;51.22656;94487.55;;;;
2020/04/25 00:50:54;;;;;;;6.05;4.75;;;;;;;12.17;51.48633;94492.74;;;;
2020/04/25 00:51:55;;;;;;;6.05;4.75;;;;;;;12.17;51.48633;94492.74;;;;
2020/04/25 00:52:55;;;;;;;6.05;4.75;;;;;;;12.17;51.48633;94492.74;;;;
2020/04/25 00:53:55;;;;;;;6.05;4.75;;;;;;;12.17;51.48633;94492.74;;;;
2020/04/25 00:54:56;;;;;;;6.05;4.75;;;;;;;12.17;51.48633;94492.74;;;;
2020/04/25 00:55:56;;;;;;;6.05;4.75;;;;;;;12.17;51.48633;94492.74;;;;
2020/04/25 00:56:57;;;;;;;6.05;4.75;;;;;;;12.17;51.48633;94492.74;;;;
2020/04/25 00:57:57;;;;;;;6.05;4.75;;;;;;;12.17;51.48633;94492.74;;;;
2020/04/25 00:58:58;;;;;;;6.05;4.75;;;;;;;12.17;51.48633;94492.74;;;;
2020/04/25 00:59:58;;;;;;;6.05;4.75;;;;;;;12.17;51.48633;94492.74;;;;
2020/04/25 01:00:58;;;;;;;6.05;4.75;;;;;;;12.17;51.48633;94492.74;;;;
2020/04/25 01:01:59;;;;;;;6.65;4.65;;;;;;;11.98;50.44824;94486.14;;;;
2020/04/25 01:02:59;;;;;;;6.65;4.65;;;;;;;11.98;50.44824;94486.14;;;;
2020/04/25 01:04:00;;;;;;;5.699999;4.4;;;;;;;11.97;51.16992;94493.58;;;;
2020/04/25 01:05:00;;;;;;;5.699999;4.4;;;;;;;11.97;51.16992;94493.58;;;;
2020/04/25 01:06:01;;;;;;;5.699999;4.4;;;;;;;11.97;51.16992;94493.58;;;;
2020/04/25 01:07:01;;;;;;;5.699999;4.4;;;;;;;11.97;51.16992;94493.58;;;;
2020/04/25 01:08:02;;;;;;;5.699999;4.4;;;;;;;11.97;51.16992;94493.58;;;;
2020/04/25 01:09:03;;;;;;;5.699999;4.4;;;;;;;11.97;51.16992;94493.58;;;;
2020/04/25 01:10:03;;;;;;;5.699999;4.4;;;;;;;11.97;51.16992;94493.58;;;;
2020/04/25 01:11:05;;;;;;;5.699999;4.4;;;;;;;11.97;51.16992;94493.58;;;;
2020/04/25 01:12:06;;;;;;;5.699999;4.4;;;;;;;11.97;51.16992;94493.58;;;;
2020/04/25 01:13:06;;;;;;;5.699999;4.4;;;;;;;11.97;51.16992;94493.58;;;;
2020/04/25 01:14:07;;;;;;;5.699999;4.4;;;;;;;11.97;51.16992;94493.58;;;;
2020/04/25 01:15:07;;;;;;;5.450001;4.3;;;;;;;11.66;50.77832;94484.5;;;;
2020/04/25 01:16:08;;;;;;;5.450001;4.3;;;;;;;11.66;50.77832;94484.5;;;;
2020/04/25 01:17:08;;;;;;;7.7;4.5;;;;;;;11.62;51.64746;94482.93;;;;
2020/04/25 01:18:09;;;;;;;7.7;4.5;;;;;;;11.62;51.64746;94482.93;;;;
2020/04/25 01:19:09;;;;;;;7.7;4.5;;;;;;;11.62;51.64746;94482.93;;;;
2020/04/25 01:20:09;;;;;;;7.7;4.5;;;;;;;11.62;51.64746;94482.93;;;;
2020/04/25 01:21:10;;;;;;;7.7;4.5;;;;;;;11.62;51.64746;94482.93;;;;
2020/04/25 01:22:10;;;;;;;7.7;4.5;;;;;;;11.62;51.64746;94482.93;;;;
2020/04/25 01:23:11;;;;;;;7.7;4.5;;;;;;;11.62;51.64746;94482.93;;;;
2020/04/25 01:24:11;;;;;;;7.7;4.5;;;;;;;11.62;51.64746;94482.93;;;;
2020/04/25 01:25:12;;;;;;;7.7;4.5;;;;;;;11.62;51.64746;94482.93;;;;
2020/04/25 01:26:12;;;;;;;7.7;4.5;;;;;;;11.62;51.64746;94482.93;;;;
2020/04/25 01:27:13;;;;;;;7.7;4.5;;;;;;;11.62;51.64746;94482.93;;;;
2020/04/25 01:28:13;;;;;;;6.2;4.55;;;;;;;11.24;51.60352;94479.21;;;;
2020/04/25 01:29:14;;;;;;;6.2;4.55;;;;;;;11.24;51.60352;94479.21;;;;
2020/04/25 01:30:14;;;;;;;6.8;4.95;;;;;;;11.24;52.50977;94479.99;;;;
2020/04/25 01:31:15;;;;;;;6.8;4.95;;;;;;;11.24;52.50977;94479.99;;;;
2020/04/25 01:32:15;;;;;;;6.8;4.95;;;;;;;11.24;52.50977;94479.99;;;;
2020/04/25 01:33:16;;;;;;;6.8;4.95;;;;;;;11.24;52.50977;94479.99;;;;
2020/04/25 01:34:16;;;;;;;6.8;4.95;;;;;;;11.24;52.50977;94479.99;;;;
2020/04/25 01:35:17;;;;;;;6.8;4.95;;;;;;;11.24;52.50977;94479.99;;;;
2020/04/25 01:36:17;;;;;;;6.8;4.95;;;;;;;11.24;52.50977;94479.99;;;;
2020/04/25 01:37:18;;;;;;;6.8;4.95;;;;;;;11.24;52.50977;94479.99;;;;
2020/04/25 01:38:18;;;;;;;6.8;4.95;;;;;;;11.24;52.50977;94479.99;;;;
2020/04/25 01:39:19;;;;;;;6.8;4.95;;;;;;;11.24;52.50977;94479.99;;;;
2020/04/25 01:40:19;;;;;;;6.8;4.95;;;;;;;11.24;52.50977;94479.99;;;;
2020/04/25 01:41:19;;;;;;;5.450001;4.6;;;;;;;11.12;52.0752;94467.21;;;;
2020/04/25 01:42:20;;;;;;;5.450001;4.6;;;;;;;11.12;52.0752;94467.21;;;;
2020/04/25 01:43:20;;;;;;;5.450001;4.6;;;;;;;11.12;52.0752;94467.21;;;;
2020/04/25 01:44:21;;;;;;;5.649999;5.149999;;;;;;;11.17;52.94238;94474.94;;;;
2020/04/25 01:45:21;;;;;;;5.649999;5.149999;;;;;;;11.17;52.94238;94474.94;;;;
2020/04/25 01:46:22;;;;;;;5.649999;5.149999;;;;;;;11.17;52.94238;94474.94;;;;
2020/04/25 01:47:22;;;;;;;5.649999;5.149999;;;;;;;11.17;52.94238;94474.94;;;;
2020/04/25 01:48:23;;;;;;;5.649999;5.149999;;;;;;;11.17;52.94238;94474.94;;;;
2020/04/25 01:49:23;;;;;;;5.649999;5.149999;;;;;;;11.17;52.94238;94474.94;;;;
2020/04/25 01:50:24;;;;;;;5.649999;5.149999;;;;;;;11.17;52.94238;94474.94;;;;
2020/04/25 01:51:25;;;;;;;5.649999;5.149999;;;;;;;11.17;52.94238;94474.94;;;;
2020/04/25 01:52:28;;;;;;;5.649999;5.149999;;;;;;;11.17;52.94238;94474.94;;;;
2020/04/25 01:53:29;;;;;;;5.649999;5.149999;;;;;;;11.17;52.94238;94474.94;;;;
2020/04/25 01:54:30;;;;;;;7.349999;5.15;;;;;;;11.18;52.37305;94477.94;;;;
2020/04/25 01:55:30;;;;;;;7.349999;5.15;;;;;;;11.18;52.37305;94477.94;;;;
2020/04/25 01:56:30;;;;;;;7.349999;5.15;;;;;;;11.18;52.37305;94477.94;;;;
2020/04/25 01:57:31;;;;;;;6.799999;5.45;;;;;;;11.25;53.07129;94475.83;;;;
2020/04/25 01:58:31;;;;;;;6.799999;5.45;;;;;;;11.25;53.07129;94475.83;;;;
2020/04/25 01:59:32;;;;;;;6.799999;5.45;;;;;;;11.25;53.07129;94475.83;;;;
2020/04/25 02:00:32;;;;;;;6.799999;5.45;;;;;;;11.25;53.07129;94475.83;;;;
2020/04/25 02:01:33;;;;;;;6.799999;5.45;;;;;;;11.25;53.07129;94475.83;;;;
2020/04/25 02:02:33;;;;;;;6.799999;5.45;;;;;;;11.25;53.07129;94475.83;;;;
2020/04/25 02:03:34;;;;;;;6.799999;5.45;;;;;;;11.25;53.07129;94475.83;;;;
2020/04/25 02:04:35;;;;;;;6.799999;5.45;;;;;;;11.25;53.07129;94475.83;;;;
2020/04/25 02:05:35;;;;;;;6.799999;5.45;;;;;;;11.25;53.07129;94475.83;;;;
2020/04/25 02:06:35;;;;;;;6.799999;5.45;;;;;;;11.25;53.07129;94475.83;;;;
2020/04/25 02:07:36;;;;;;;8.25;5.149999;;;;;;;11.31;52.37695;94483.44;;;;
2020/04/25 02:08:36;;;;;;;8.25;5.149999;;;;;;;11.31;52.37695;94483.44;;;;
2020/04/25 02:09:37;;;;;;;8.25;5.149999;;;;;;;11.31;52.37695;94483.44;;;;
2020/04/25 02:10:37;;;;;;;7.600001;5.25;;;;;;;11.37;53.11816;94478.73;;;;
2020/04/25 02:11:38;;;;;;;7.600001;5.25;;;;;;;11.37;53.11816;94478.73;;;;
2020/04/25 02:12:38;;;;;;;7.600001;5.25;;;;;;;11.37;53.11816;94478.73;;;;
2020/04/25 02:13:39;;;;;;;7.600001;5.25;;;;;;;11.37;53.11816;94478.73;;;;
2020/04/25 02:14:39;;;;;;;7.600001;5.25;;;;;;;11.37;53.11816;94478.73;;;;
2020/04/25 02:15:39;;;;;;;7.600001;5.25;;;;;;;11.37;53.11816;94478.73;;;;
2020/04/25 02:16:40;;;;;;;7.600001;5.25;;;;;;;11.37;53.11816;94478.73;;;;
2020/04/25 02:17:40;;;;;;;7.600001;5.25;;;;;;;11.37;53.11816;94478.73;;;;
2020/04/25 02:18:41;;;;;;;7.600001;5.25;;;;;;;11.37;53.11816;94478.73;;;;
2020/04/25 02:19:41;;;;;;;7.600001;5.25;;;;;;;11.37;53.11816;94478.73;;;;
2020/04/25 02:20:42;;;;;;;7.2;5.299999;;;;;;;11.4;52.45313;94478.64;;;;
2020/04/25 02:21:42;;;;;;;7.2;5.299999;;;;;;;11.4;52.45313;94478.64;;;;
2020/04/25 02:22:42;;;;;;;7.2;5.299999;;;;;;;11.4;52.45313;94478.64;;;;
2020/04/25 02:23:43;;;;;;;7.2;5.299999;;;;;;;11.4;52.45313;94478.64;;;;
2020/04/25 02:24:43;;;;;;;7.2;5.299999;;;;;;;11.4;52.45313;94478.64;;;;
2020/04/25 02:25:44;;;;;;;7.2;5.299999;;;;;;;11.4;52.45313;94478.64;;;;
2020/04/25 02:26:44;;;;;;;7.2;5.299999;;;;;;;11.4;52.45313;94478.64;;;;
2020/04/25 02:27:45;;;;;;;7.2;5.299999;;;;;;;11.4;52.45313;94478.64;;;;
2020/04/25 02:28:45;;;;;;;7.2;5.299999;;;;;;;11.4;52.45313;94478.64;;;;
2020/04/25 02:29:45;;;;;;;7.2;5.299999;;;;;;;11.4;52.45313;94478.64;;;;
2020/04/25 02:30:46;;;;;;;7.2;5.299999;;;;;;;11.4;52.45313;94478.64;;;;
2020/04/25 02:31:46;;;;;;;7.15;5.2;;;;;;;11.35;52.39355;94475.87;;;;
2020/04/25 02:32:47;;;;;;;7.15;5.2;;;;;;;11.35;52.39355;94475.87;;;;
2020/04/25 02:33:47;;;;;;;7.15;5.2;;;;;;;11.35;52.39355;94475.87;;;;
2020/04/25 02:34:48;;;;;;;7.15;5.2;;;;;;;11.35;52.39355;94475.87;;;;
2020/04/25 02:35:48;;;;;;;7.15;5.2;;;;;;;11.35;52.39355;94475.87;;;;
2020/04/25 02:36:49;;;;;;;7.15;5.2;;;;;;;11.35;52.39355;94475.87;;;;
2020/04/25 02:37:49;;;;;;;7.15;5.2;;;;;;;11.35;52.39355;94475.87;;;;
2020/04/25 02:38:49;;;;;;;7.15;5.2;;;;;;;11.35;52.39355;94475.87;;;;
2020/04/25 02:39:50;;;;;;;7.15;5.2;;;;;;;11.35;52.39355;94475.87;;;;
2020/04/25 02:40:51;;;;;;;7.15;5.2;;;;;;;11.35;52.39355;94475.87;;;;
2020/04/25 02:41:51;;;;;;;6.250001;5.15;;;;;;;11.13;52.46387;94483.72;;;;
2020/04/25 02:42:52;;;;;;;6.250001;5.15;;;;;;;11.13;52.46387;94483.72;;;;
2020/04/25 02:43:52;;;;;;;6.250001;5.15;;;;;;;11.13;52.46387;94483.72;;;;
2020/04/25 02:44:53;;;;;;;6.65;5.2;;;;;;;11.13;53.44434;94481.13;;;;
2020/04/25 02:45:53;;;;;;;6.65;5.2;;;;;;;11.13;53.44434;94481.13;;;;
2020/04/25 02:46:54;;;;;;;6.65;5.2;;;;;;;11.13;53.44434;94481.13;;;;
2020/04/25 02:47:54;;;;;;;6.65;5.2;;;;;;;11.13;53.44434;94481.13;;;;
2020/04/25 02:48:54;;;;;;;6.65;5.2;;;;;;;11.13;53.44434;94481.13;;;;
2020/04/25 02:49:55;;;;;;;6.65;5.2;;;;;;;11.13;53.44434;94481.13;;;;
2020/04/25 02:50:55;;;;;;;6.65;5.2;;;;;;;11.13;53.44434;94481.13;;;;
2020/04/25 02:51:56;;;;;;;6.65;5.2;;;;;;;11.13;53.44434;94481.13;;;;
2020/04/25 02:52:56;;;;;;;6.65;5.2;;;;;;;11.13;53.44434;94481.13;;;;
2020/04/25 02:53:57;;;;;;;6.65;5.2;;;;;;;11.13;53.44434;94481.13;;;;
2020/04/25 02:54:57;;;;;;;6.65;5.2;;;;;;;11.13;53.44434;94481.13;;;;
2020/04/25 02:55:58;;;;;;;6.15;5.55;;;;;;;10.97;53.12305;94482.9;;;;
2020/04/25 02:56:58;;;;;;;6.15;5.55;;;;;;;10.97;53.12305;94482.9;;;;
2020/04/25 02:57:59;;;;;;;6.15;5.55;;;;;;;10.97;53.12305;94482.9;;;;
2020/04/25 02:58:59;;;;;;;6.15;5.55;;;;;;;10.97;53.12305;94482.9;;;;
2020/04/25 02:59:59;;;;;;;6.15;5.55;;;;;;;10.97;53.12305;94482.9;;;;
2020/04/25 03:01:16;;;;;;;6.15;5.55;;;;;;;10.97;53.12305;94482.9;;;;
2020/04/25 03:02:16;;;;;;;6.15;5.55;;;;;;;10.97;53.12305;94482.9;;;;
2020/04/25 03:03:17;;;;;;;6.15;5.55;;;;;;;10.97;53.12305;94482.9;;;;
2020/04/25 03:04:17;;;;;;;6.15;5.55;;;;;;;10.97;53.12305;94482.9;;;;
2020/04/25 03:05:18;;;;;;;6.15;5.55;;;;;;;10.97;53.12305;94482.9;;;;
2020/04/25 03:06:18;;;;;;;6.35;5.2;;;;;;;10.84;53.28027;94475.64;;;;
2020/04/25 03:07:18;;;;;;;6.35;5.2;;;;;;;10.84;53.28027;94475.64;;;;
2020/04/25 03:08:19;;;;;;;6.35;5.2;;;;;;;10.84;53.28027;94475.64;;;;
2020/04/25 03:09:19;;;;;;;6.35;5.2;;;;;;;10.84;53.28027;94475.64;;;;
2020/04/25 03:10:20;;;;;;;6.35;5.2;;;;;;;10.84;53.28027;94475.64;;;;
2020/04/25 03:11:20;;;;;;;6.35;5.2;;;;;;;10.84;53.28027;94475.64;;;;
2020/04/25 03:12:21;;;;;;;6.35;5.2;;;;;;;10.84;53.28027;94475.64;;;;
2020/04/25 03:13:21;;;;;;;6.35;5.2;;;;;;;10.84;53.28027;94475.64;;;;
2020/04/25 03:14:22;;;;;;;6.35;5.2;;;;;;;10.84;53.28027;94475.64;;;;
2020/04/25 03:15:23;;;;;;;6.35;5.2;;;;;;;10.84;53.28027;94475.64;;;;
2020/04/25 03:16:23;;;;;;;6;5.35;;;;;;;10.57;53.53809;94479.83;;;;
2020/04/25 03:17:23;;;;;;;6;5.35;;;;;;;10.57;53.53809;94479.83;;;;
2020/04/25 03:18:24;;;;;;;6;5.35;;;;;;;10.57;53.53809;94479.83;;;;
2020/04/25 03:19:24;;;;;;;6;5.35;;;;;;;10.57;53.53809;94479.83;;;;
2020/04/25 03:20:25;;;;;;;6;5.35;;;;;;;10.57;53.53809;94479.83;;;;
2020/04/25 03:21:25;;;;;;;6;5.35;;;;;;;10.57;53.53809;94479.83;;;;
2020/04/25 03:22:26;;;;;;;6;5.35;;;;;;;10.57;53.53809;94479.83;;;;
2020/04/25 03:23:26;;;;;;;6;5.35;;;;;;;10.57;53.53809;94479.83;;;;
2020/04/25 03:24:27;;;;;;;6;5.35;;;;;;;10.57;53.53809;94479.83;;;;
2020/04/25 03:25:27;;;;;;;6;5.35;;;;;;;10.57;53.53809;94479.83;;;;
2020/04/25 03:26:28;;;;;;;6;5.35;;;;;;;10.57;53.53809;94479.83;;;;
2020/04/25 03:27:29;;;;;;;8.699999;6.1;;;;;;;10.46;53.69629;94482.15;;;;
2020/04/25 03:28:29;;;;;;;8.699999;6.1;;;;;;;10.46;53.69629;94482.15;;;;
2020/04/25 03:29:30;;;;;;;8.699999;6.1;;;;;;;10.46;53.69629;94482.15;;;;
2020/04/25 03:30:30;;;;;;;8.699999;6.1;;;;;;;10.46;53.69629;94482.15;;;;
2020/04/25 03:31:31;;;;;;;8.699999;6.1;;;;;;;10.46;53.69629;94482.15;;;;
2020/04/25 03:32:31;;;;;;;8.699999;6.1;;;;;;;10.46;53.69629;94482.15;;;;
2020/04/25 03:33:32;;;;;;;8.699999;6.1;;;;;;;10.46;53.69629;94482.15;;;;
2020/04/25 03:34:32;;;;;;;8.699999;6.1;;;;;;;10.46;53.69629;94482.15;;;;
2020/04/25 03:35:32;;;;;;;8.699999;6.1;;;;;;;10.46;53.69629;94482.15;;;;
2020/04/25 03:36:33;;;;;;;8.699999;6.1;;;;;;;10.46;53.69629;94482.15;;;;
2020/04/25 03:37:33;;;;;;;6.299999;5.649999;;;;;;;10.36;54.03809;94488.79;;;;
2020/04/25 03:38:34;;;;;;;6.299999;5.649999;;;;;;;10.36;54.03809;94488.79;;;;
2020/04/25 03:39:34;;;;;;;6.299999;5.649999;;;;;;;10.36;54.03809;94488.79;;;;
2020/04/25 03:40:35;;;;;;;6.299999;5.649999;;;;;;;10.36;54.03809;94488.79;;;;
2020/04/25 03:41:35;;;;;;;6.299999;5.649999;;;;;;;10.36;54.03809;94488.79;;;;
2020/04/25 03:42:36;;;;;;;6.299999;5.649999;;;;;;;10.36;54.03809;94488.79;;;;
2020/04/25 03:43:37;;;;;;;6.299999;5.649999;;;;;;;10.36;54.03809;94488.79;;;;
2020/04/25 03:44:38;;;;;;;6.299999;5.649999;;;;;;;10.36;54.03809;94488.79;;;;
2020/04/25 03:45:38;;;;;;;6.299999;5.649999;;;;;;;10.36;54.03809;94488.79;;;;
2020/04/25 03:46:39;;;;;;;6.299999;5.649999;;;;;;;10.36;54.03809;94488.79;;;;
2020/04/25 03:47:39;;;;;;;6.299999;5.649999;;;;;;;10.36;54.03809;94488.79;;;;
2020/04/25 03:48:40;;;;;;;7.900001;5.95;;;;;;;10.35;54.07129;94482.99;;;;
2020/04/25 03:49:40;;;;;;;7.900001;5.95;;;;;;;10.35;54.07129;94482.99;;;;
2020/04/25 03:50:41;;;;;;;7.900001;5.95;;;;;;;10.35;54.07129;94482.99;;;;
2020/04/25 03:51:41;;;;;;;7.900001;5.95;;;;;;;10.35;54.07129;94482.99;;;;
2020/04/25 03:52:42;;;;;;;7.900001;5.95;;;;;;;10.35;54.07129;94482.99;;;;
2020/04/25 03:53:42;;;;;;;7.900001;5.95;;;;;;;10.35;54.07129;94482.99;;;;
2020/04/25 03:54:43;;;;;;;7.900001;5.95;;;;;;;10.35;54.07129;94482.99;;;;
2020/04/25 03:55:43;;;;;;;7.900001;5.95;;;;;;;10.35;54.07129;94482.99;;;;
2020/04/25 03:56:44;;;;;;;7.900001;5.95;;;;;;;10.35;54.07129;94482.99;;;;
2020/04/25 03:57:44;;;;;;;7.900001;5.95;;;;;;;10.35;54.07129;94482.99;;;;
2020/04/25 03:58:44;;;;;;;7.350001;5.8;;;;;;;10.24;54.3584;94486.64;;;;
2020/04/25 03:59:45;;;;;;;7.350001;5.8;;;;;;;10.24;54.3584;94486.64;;;;
2020/04/25 04:00:45;;;;;;;7.350001;5.8;;;;;;;10.24;54.3584;94486.64;;;;
2020/04/25 04:01:46;;;;;;;7.350001;5.8;;;;;;;10.24;54.3584;94486.64;;;;
2020/04/25 04:02:46;;;;;;;7.350001;5.8;;;;;;;10.24;54.3584;94486.64;;;;
2020/04/25 04:03:47;;;;;;;7.350001;5.8;;;;;;;10.24;54.3584;94486.64;;;;
2020/04/25 04:04:55;;;;;;;7.350001;5.8;;;;;;;10.24;54.3584;94486.64;;;;
2020/04/25 04:06:09;;;;;;;7.350001;5.8;;;;;;;10.24;54.3584;94486.64;;;;
2020/04/25 04:07:23;;;;;;;7.350001;5.8;;;;;;;10.24;54.3584;94486.64;;;;
2020/04/25 04:08:30;;;;;;;7.350001;5.8;;;;;;;10.24;54.3584;94486.64;;;;
2020/04/25 04:09:36;;;;;;;9.749999;6.250001;;;;;;;10.18;54.58594;94489.54;;;;
2020/04/25 04:10:50;;;;;;;9.749999;6.250001;;;;;;;10.18;54.58594;94489.54;;;;
2020/04/25 04:12:02;;;;;;;9.749999;6.250001;;;;;;;10.18;54.58594;94489.54;;;;
2020/04/25 04:13:29;;;;;;;9.749999;6.250001;;;;;;;10.18;54.58594;94489.54;;;;
2020/04/25 04:14:40;;;;;;;9.749999;6.250001;;;;;;;10.18;54.58594;94489.54;;;;
2020/04/25 04:16:27;;;;;;;9.749999;6.250001;;;;;;;10.18;54.58594;94489.54;;;;
2020/04/25 04:17:59;;;;;;;9.749999;6.250001;;;;;;;10.18;54.58594;94489.54;;;;
2020/04/25 04:24:22;;;;;;;10;6.9;;;;;;;10.1;54.80273;94494.86;;;;
2020/04/25 04:25:35;;;;;;;10;6.9;;;;;;;10.1;54.80273;94494.86;;;;
2020/04/25 04:26:44;;;;;;;10;6.9;;;;;;;10.1;54.80273;94494.86;;;;
2020/04/25 04:28:08;;;;;;;10;6.9;;;;;;;10.1;54.80273;94494.86;;;;
2020/04/25 04:29:19;;;;;;;10;6.9;;;;;;;10.1;54.80273;94494.86;;;;
2020/04/25 04:30:27;;;;;;;10;6.9;;;;;;;10.1;54.80273;94494.86;;;;
2020/04/25 04:32:06;;;;;;;11.7;8;;;;;;;10.16;54.71387;94506.93;;;;
2020/04/25 04:33:17;;;;;;;11.7;8;;;;;;;10.16;54.71387;94506.93;;;;
2020/04/25 04:34:27;;;;;;;11.7;8;;;;;;;10.16;54.71387;94506.93;;;;
2020/04/25 04:46:58;;;;;;;11.85;8.9;;;;;;;10.11;54.88965;94506.47;;;;
2020/04/25 04:47:59;;;;;;;11.85;8.9;;;;;;;10.11;54.88965;94506.47;;;;
2020/04/25 04:48:59;;;;;;;11.85;8.9;;;;;;;10.11;54.88965;94506.47;;;;
2020/04/25 04:49:59;;;;;;;11.85;8.9;;;;;;;10.11;54.88965;94506.47;;;;
2020/04/25 04:51:00;;;;;;;11.85;8.9;;;;;;;10.11;54.88965;94506.47;;;;
2020/04/25 04:52:00;;;;;;;11.8;8.8;;;;;;;10.17;54.88574;94503.16;;;;
2020/04/25 04:53:01;;;;;;;11.8;8.8;;;;;;;10.17;54.88574;94503.16;;;;
2020/04/25 04:54:01;;;;;;;11.8;8.8;;;;;;;10.17;54.88574;94503.16;;;;
2020/04/25 04:55:02;;;;;;;11.8;8.8;;;;;;;10.17;54.88574;94503.16;;;;
2020/04/25 04:56:02;;;;;;;11.8;8.8;;;;;;;10.17;54.88574;94503.16;;;;
2020/04/25 04:57:03;;;;;;;11.8;8.8;;;;;;;10.17;54.88574;94503.16;;;;
2020/04/25 04:58:04;;;;;;;11.8;8.8;;;;;;;10.17;54.88574;94503.16;;;;
2020/04/25 04:59:04;;;;;;;11.8;8.8;;;;;;;10.17;54.88574;94503.16;;;;
2020/04/25 05:00:04;;;;;;;11.8;8.8;;;;;;;10.17;54.88574;94503.16;;;;
2020/04/25 05:01:05;;;;;;;11.8;8.8;;;;;;;10.17;54.88574;94503.16;;;;
2020/04/25 05:02:06;;;;;;;11.8;8.8;;;;;;;10.17;54.88574;94503.16;;;;
2020/04/25 05:03:06;;;;;;;14.45;9.099998;;;;;;;10.19;55.01855;94514.92;;;;
2020/04/25 05:04:06;;;;;;;14.45;9.099998;;;;;;;10.19;55.01855;94514.92;;;;
2020/04/25 05:05:07;;;;;;;14.45;9.099998;;;;;;;10.19;55.01855;94514.92;;;;
2020/04/25 05:06:07;;;;;;;14.45;9.099998;;;;;;;10.19;55.01855;94514.92;;;;
2020/04/25 05:07:08;;;;;;;14.45;9.099998;;;;;;;10.19;55.01855;94514.92;;;;
2020/04/25 05:08:08;;;;;;;14.45;9.099998;;;;;;;10.19;55.01855;94514.92;;;;
2020/04/25 05:09:09;;;;;;;14.45;9.099998;;;;;;;10.19;55.01855;94514.92;;;;
2020/04/25 05:10:09;;;;;;;14.45;9.099998;;;;;;;10.19;55.01855;94514.92;;;;
2020/04/25 05:11:10;;;;;;;14.45;9.099998;;;;;;;10.19;55.01855;94514.92;;;;
2020/04/25 05:12:10;;;;;;;14.45;9.099998;;;;;;;10.19;55.01855;94514.92;;;;
2020/04/25 05:13:11;;;;;;;13.55;9.65;;;;;;;10.45;55.12793;94523.56;;;;
2020/04/25 05:14:11;;;;;;;13.55;9.65;;;;;;;10.45;55.12793;94523.56;;;;
2020/04/25 05:15:12;;;;;;;13.55;9.65;;;;;;;10.45;55.12793;94523.56;;;;
2020/04/25 05:16:12;;;;;;;13.55;9.65;;;;;;;10.45;55.12793;94523.56;;;;
2020/04/25 05:17:13;;;;;;;13.55;9.65;;;;;;;10.45;55.12793;94523.56;;;;
2020/04/25 05:18:13;;;;;;;13.55;9.65;;;;;;;10.45;55.12793;94523.56;;;;
2020/04/25 05:19:13;;;;;;;13.55;9.65;;;;;;;10.45;55.12793;94523.56;;;;
2020/04/25 05:20:14;;;;;;;13.55;9.65;;;;;;;10.45;55.12793;94523.56;;;;
2020/04/25 05:21:14;;;;;;;13.55;9.65;;;;;;;10.45;55.12793;94523.56;;;;
2020/04/25 05:22:15;;;;;;;13.55;9.65;;;;;;;10.45;55.12793;94523.56;;;;
2020/04/25 05:23:15;;;;;;;13.55;9.65;;;;;;;10.45;55.12793;94523.56;;;;
2020/04/25 05:24:16;;;;;;;14.5;10.55;;;;;;;10.73;54.97754;94535.19;;;;
2020/04/25 05:25:16;;;;;;;14.5;10.55;;;;;;;10.73;54.97754;94535.19;;;;
2020/04/25 05:26:17;;;;;;;14.5;10.55;;;;;;;10.73;54.97754;94535.19;;;;
2020/04/25 05:27:17;;;;;;;14.5;10.55;;;;;;;10.73;54.97754;94535.19;;;;
2020/04/25 05:28:18;;;;;;;14.5;10.55;;;;;;;10.73;54.97754;94535.19;;;;
2020/04/25 05:29:18;;;;;;;14.5;10.55;;;;;;;10.73;54.97754;94535.19;;;;
2020/04/25 05:30:19;;;;;;;14.5;10.55;;;;;;;10.73;54.97754;94535.19;;;;
2020/04/25 05:31:19;;;;;;;14.5;10.55;;;;;;;10.73;54.97754;94535.19;;;;
2020/04/25 05:32:20;;;;;;;14.5;10.55;;;;;;;10.73;54.97754;94535.19;;;;
2020/04/25 05:33:20;;;;;;;14.5;10.55;;;;;;;10.73;54.97754;94535.19;;;;
2020/04/25 05:34:21;;;;;;;12.7;10.15;;;;;;;11.15;54.50293;94535.58;;;;
2020/04/25 05:35:21;;;;;;;12.7;10.15;;;;;;;11.15;54.50293;94535.58;;;;
2020/04/25 05:36:21;;;;;;;12.7;10.15;;;;;;;11.15;54.50293;94535.58;;;;
2020/04/25 05:37:22;;;;;;;12.7;10.15;;;;;;;11.15;54.50293;94535.58;;;;
2020/04/25 05:38:22;;;;;;;12.7;10.15;;;;;;;11.15;54.50293;94535.58;;;;
2020/04/25 05:39:23;;;;;;;12.7;10.15;;;;;;;11.15;54.50293;94535.58;;;;
2020/04/25 05:40:23;;;;;;;12.7;10.15;;;;;;;11.15;54.50293;94535.58;;;;
2020/04/25 05:41:24;;;;;;;12.7;10.15;;;;;;;11.15;54.50293;94535.58;;;;
2020/04/25 05:42:24;;;;;;;12.7;10.15;;;;;;;11.15;54.50293;94535.58;;;;
2020/04/25 05:43:25;;;;;;;12.7;10.15;;;;;;;11.15;54.50293;94535.58;;;;
2020/04/25 05:44:25;;;;;;;12.7;10.15;;;;;;;11.15;54.50293;94535.58;;;;
2020/04/25 05:45:26;;;;;;;15.05;11;;;;;;;11.52;54.04297;94540.08;;;;
2020/04/25 05:46:26;;;;;;;15.05;11;;;;;;;11.52;54.04297;94540.08;;;;
2020/04/25 05:47:32;;;;;;;15.05;11;;;;;;;11.52;54.04297;94540.08;;;;
2020/04/25 05:48:33;;;;;;;15.05;11;;;;;;;11.52;54.04297;94540.08;;;;
2020/04/25 05:49:34;;;;;;;15.05;11;;;;;;;11.52;54.04297;94540.08;;;;
2020/04/25 05:50:34;;;;;;;15.05;11;;;;;;;11.52;54.04297;94540.08;;;;
2020/04/25 05:51:35;;;;;;;15.05;11;;;;;;;11.52;54.04297;94540.08;;;;
2020/04/25 05:52:35;;;;;;;15.05;11;;;;;;;11.52;54.04297;94540.08;;;;
2020/04/25 05:53:36;;;;;;;15.05;11;;;;;;;11.52;54.04297;94540.08;;;;
2020/04/25 05:54:36;;;;;;;15.05;11;;;;;;;11.52;54.04297;94540.08;;;;
2020/04/25 05:55:36;;;;;;;17.6;13.05;;;;;;;11.98;53.65723;94544.31;;;;
2020/04/25 05:56:37;;;;;;;17.6;13.05;;;;;;;11.98;53.65723;94544.31;;;;
2020/04/25 05:57:37;;;;;;;17.6;13.05;;;;;;;11.98;53.65723;94544.31;;;;